Time;durP1;ratioP1;P1;durP2;ratioP2;P2;SDS_P1;SDS_P2;PMS_P1;PMS_P2;Temp;Humidity;BMP_temperature;BMP_pressure;BME280_temperature;BME280_humidity;BME280_pressure;Samples;Min_cycle;Max_cycle;Signal;HPM_P1;HPM_P2
2022/11/26 00:00:17;;;;;;;9.68;5.53;;;11.50;83.60;;;;;;5072779;28;20078;-85
2022/11/26 00:02:44;;;;;;;7.18;5.38;;;11.50;84.40;;;;;;5059213;28;20024;-83
2022/11/26 00:05:12;;;;;;;10.00;5.55;;;11.50;84.40;;;;;;5066653;28;20108;-84
2022/11/26 00:07:39;;;;;;;6.95;5.15;;;11.60;84.20;;;;;;5067794;28;20034;-84
2022/11/26 00:10:15;;;;;;;6.22;4.97;;;11.60;84.20;;;;;;5066208;28;20017;-85
2022/11/26 00:12:41;;;;;;;8.38;5.50;;;11.60;84.00;;;;;;5065166;28;20052;-84
2022/11/26 00:15:15;;;;;;;8.35;6.10;;;11.60;83.90;;;;;;5063475;28;20033;-84
2022/11/26 00:17:41;;;;;;;10.07;6.20;;;11.60;83.90;;;;;;5063877;28;20145;-83
2022/11/26 00:20:07;;;;;;;9.15;5.82;;;11.60;83.90;;;;;;5065540;28;20024;-83
2022/11/26 00:22:41;;;;;;;8.25;6.28;;;11.60;84.00;;;;;;5071332;28;20032;-84
2022/11/26 00:25:13;;;;;;;7.85;5.88;;;11.60;84.10;;;;;;5067616;28;20033;-84
2022/11/26 00:27:39;;;;;;;7.40;5.97;;;11.60;83.70;;;;;;5059701;28;20366;-84
2022/11/26 00:30:20;;;;;;;7.13;5.32;;;11.60;84.10;;;;;;5071517;28;20036;-82
2022/11/26 00:32:46;;;;;;;10.13;5.90;;;11.60;84.10;;;;;;5066084;28;20021;-82
2022/11/26 00:35:12;;;;;;;7.45;5.45;;;11.60;84.10;;;;;;5069342;28;20033;-83
2022/11/26 00:37:44;;;;;;;8.00;5.72;;;11.60;84.10;;;;;;5069368;28;20032;-83
2022/11/26 00:40:22;;;;;;;10.82;8.38;;;11.60;84.00;;;;;;5072126;28;20036;-83
2022/11/26 00:42:48;;;;;;;7.68;6.10;;;11.50;82.70;;;;;;5067403;28;20150;-83
2022/11/26 00:45:16;;;;;;;10.02;6.82;;;11.40;83.30;;;;;;5071681;28;20029;-83
2022/11/26 00:47:42;;;;;;;8.35;6.07;;;11.40;83.60;;;;;;5063384;28;20091;-83
2022/11/26 00:50:13;;;;;;;8.68;6.78;;;11.40;83.90;;;;;;5064558;28;20457;-82
2022/11/26 00:52:38;;;;;;;7.38;5.93;;;11.40;83.90;;;;;;5067769;28;20040;-83
2022/11/26 00:55:34;;;;;;;7.88;6.05;;;11.40;84.20;;;;;;5065561;28;20037;-83
2022/11/26 00:58:00;;;;;;;8.00;5.95;;;11.40;84.20;;;;;;5064299;28;20046;-82
2022/11/26 01:00:29;;;;;;;7.60;5.65;;;11.40;84.10;;;;;;5061979;28;20082;-82
2022/11/26 01:02:55;;;;;;;8.65;6.07;;;11.40;84.10;;;;;;5067028;28;20111;-83
2022/11/26 01:05:23;;;;;;;7.38;4.93;;;11.40;83.60;;;;;;5069382;28;20071;-83
2022/11/26 01:07:51;;;;;;;8.13;5.82;;;11.40;83.90;;;;;;5068663;28;20082;-83
2022/11/26 01:10:22;;;;;;;8.52;5.80;;;11.40;84.00;;;;;;5070785;28;20112;-83
2022/11/26 01:12:51;;;;;;;12.68;8.10;;;11.40;83.80;;;;;;5081872;28;20079;-82
2022/11/26 01:15:18;;;;;;;10.60;7.60;;;11.30;83.10;;;;;;5073803;28;20020;-83
2022/11/26 01:17:44;;;;;;;10.00;5.45;;;11.20;83.40;;;;;;5071521;28;20040;-86
2022/11/26 01:20:26;;;;;;;6.97;5.70;;;11.20;83.80;;;;;;5066081;28;20492;-83
2022/11/26 01:22:53;;;;;;;5.63;4.57;;;11.20;83.80;;;;;;5061273;28;20112;-85
2022/11/26 01:25:19;;;;;;;5.88;4.38;;;11.20;84.00;;;;;;5068337;28;20060;-82
2022/11/26 01:27:45;;;;;;;7.22;4.82;;;11.20;83.70;;;;;;5071618;28;20033;-80
2022/11/26 01:30:17;;;;;;;4.90;3.95;;;11.10;83.80;;;;;;5065018;28;20041;-80
2022/11/26 01:32:43;;;;;;;5.32;4.15;;;11.10;83.90;;;;;;5070476;28;20032;-81
2022/11/26 01:35:09;;;;;;;5.00;4.35;;;11.10;83.90;;;;;;5040699;28;20036;-81
2022/11/26 01:37:35;;;;;;;5.00;3.85;;;11.00;83.60;;;;;;5068430;28;20024;-84
2022/11/26 01:40:01;;;;;;;5.22;3.83;;;11.00;83.90;;;;;;5068600;28;20036;-84
2022/11/26 01:42:45;;;;;;;6.57;4.07;;;11.10;82.80;;;;;;5070332;28;20107;-83
2022/11/26 01:45:19;;;;;;;6.80;5.05;;;11.00;83.50;;;;;;5057663;28;20040;-83
2022/11/26 01:47:47;;;;;;;6.40;3.80;;;11.00;83.00;;;;;;5064457;28;20024;-82
2022/11/26 01:50:30;;;;;;;5.22;3.90;;;11.00;83.10;;;;;;5073098;28;20086;-85
2022/11/26 01:53:02;;;;;;;5.47;3.70;;;11.10;83.40;;;;;;5051983;28;20035;-84
2022/11/26 01:55:37;;;;;;;4.97;3.63;;;11.10;83.20;;;;;;5069628;28;20103;-83
2022/11/26 01:58:07;;;;;;;4.30;3.30;;;11.10;83.00;;;;;;5060583;28;20437;-83
2022/11/26 02:00:32;;;;;;;4.63;3.57;;;11.20;82.90;;;;;;5060425;28;20029;-82
2022/11/26 02:02:59;;;;;;;3.38;2.65;;;11.30;82.80;;;;;;5066856;28;20436;-83
2022/11/26 02:05:30;;;;;;;6.35;3.17;;;11.30;82.60;;;;;;5069080;28;20021;-83
2022/11/26 02:07:56;;;;;;;4.78;3.20;;;11.30;82.00;;;;;;5071932;28;20030;-80
2022/11/26 02:10:22;;;;;;;5.07;3.58;;;11.30;82.10;;;;;;5062886;28;20020;-81
2022/11/26 02:12:49;;;;;;;5.50;3.28;;;11.20;80.40;;;;;;5065230;28;20040;-84
2022/11/26 02:15:15;;;;;;;6.88;3.70;;;11.20;81.40;;;;;;5070133;28;20101;-84
2022/11/26 02:17:54;;;;;;;4.72;3.30;;;11.20;81.20;;;;;;5045689;28;20060;-83
2022/11/26 02:20:34;;;;;;;4.45;2.85;;;11.20;81.70;;;;;;5066816;28;20524;-84
2022/11/26 02:23:38;;;;;;;5.00;2.80;;;11.20;81.40;;;;;;5067738;28;20078;-82
2022/11/26 02:26:44;;;;;;;3.33;2.95;;;11.20;80.80;;;;;;5067522;28;20029;-83
2022/11/26 02:29:58;;;;;;;5.40;2.75;;;11.20;81.20;;;;;;5058425;28;20033;-82
2022/11/26 02:32:36;;;;;;;4.00;2.58;;;11.30;81.50;;;;;;5052995;28;20396;-83
2022/11/26 02:35:19;;;;;;;3.17;2.60;;;11.30;81.40;;;;;;5071158;28;20024;-83
2022/11/26 02:37:56;;;;;;;6.60;2.97;;;11.30;81.40;;;;;;5070131;28;20370;-83
2022/11/26 02:40:23;;;;;;;3.17;2.65;;;11.20;80.40;;;;;;5068864;28;20115;-84
2022/11/26 02:42:49;;;;;;;4.03;2.63;;;11.30;81.10;;;;;;5063149;28;20024;-84
2022/11/26 02:45:39;;;;;;;3.53;2.50;;;11.30;81.20;;;;;;5071396;28;20036;-83
2022/11/26 02:48:08;;;;;;;;;;;11.30;81.10;;;;;;5059189;28;20062;-83
2022/11/26 02:50:41;;;;;;;5.63;2.92;;;11.30;81.10;;;;;;5062990;28;19919;-82
2022/11/26 02:53:08;;;;;;;5.05;2.90;;;11.30;80.90;;;;;;5074510;28;20085;-82
2022/11/26 02:55:39;;;;;;;4.32;2.28;;;11.40;81.00;;;;;;5070928;28;20416;-82
2022/11/26 02:58:04;;;;;;;;;;;11.30;81.00;;;;;;5063579;28;20029;-82
2022/11/26 03:00:33;;;;;;;4.55;2.60;;;11.30;81.20;;;;;;5068074;28;19913;-82
2022/11/26 03:03:21;;;;;;;6.22;2.65;;;11.40;81.10;;;;;;5068819;28;20028;-83
2022/11/26 03:05:48;;;;;;;3.53;2.50;;;11.30;79.50;;;;;;5056001;28;20036;-82
2022/11/26 03:08:15;;;;;;;4.40;2.95;;;11.10;79.70;;;;;;5061370;28;20035;-82
2022/11/26 03:10:41;;;;;;;3.13;2.63;;;10.80;80.00;;;;;;5063034;28;20036;-81
2022/11/26 03:13:06;;;;;;;3.25;2.58;;;10.50;81.10;;;;;;5076394;28;20032;-82
2022/11/26 03:15:32;;;;;;;2.42;1.92;;;10.70;81.50;;;;;;5064874;28;20056;-82
2022/11/26 03:17:58;;;;;;;3.20;1.92;;;10.80;81.60;;;;;;5066988;28;20036;-82
2022/11/26 03:20:23;;;;;;;2.60;2.20;;;10.90;81.60;;;;;;5067519;28;20466;-82
2022/11/26 03:22:49;;;;;;;5.75;2.67;;;11.00;81.60;;;;;;5073375;28;20389;-82
2022/11/26 03:25:15;;;;;;;3.20;2.80;;;10.90;80.70;;;;;;5063592;28;20381;-82
2022/11/26 03:27:40;;;;;;;4.63;2.85;;;10.90;80.40;;;;;;5066457;28;20021;-82
2022/11/26 03:30:07;;;;;;;4.45;2.90;;;10.70;80.30;;;;;;5064767;28;20435;-82
2022/11/26 03:32:33;;;;;;;3.13;1.90;;;10.70;81.00;;;;;;5072576;28;20397;-82
2022/11/26 03:34:58;;;;;;;3.17;2.30;;;10.80;81.30;;;;;;5070517;28;20021;-82
2022/11/26 03:37:24;;;;;;;5.15;2.65;;;10.70;80.80;;;;;;5070098;28;20161;-83
2022/11/26 03:39:50;;;;;;;5.45;2.20;;;10.70;80.40;;;;;;5069007;28;20167;-83
2022/11/26 03:42:15;;;;;;;2.80;2.22;;;10.80;80.90;;;;;;5072869;28;20034;-83
2022/11/26 03:44:41;;;;;;;5.40;2.70;;;10.80;81.20;;;;;;5064122;28;20035;-82
2022/11/26 03:47:07;;;;;;;3.33;2.10;;;10.80;80.80;;;;;;5072946;28;20370;-83
2022/11/26 03:49:32;;;;;;;2.92;2.08;;;10.90;81.10;;;;;;5064330;28;20401;-83
2022/11/26 03:51:58;;;;;;;3.45;1.80;;;10.80;80.80;;;;;;5063886;28;20446;-84
2022/11/26 03:54:24;;;;;;;2.15;1.67;;;10.70;80.80;;;;;;5073317;28;20477;-83
2022/11/26 03:56:49;;;;;;;2.58;1.83;;;10.70;80.70;;;;;;5072986;28;20090;-83
2022/11/26 03:59:15;;;;;;;4.65;2.15;;;10.80;81.00;;;;;;5073590;28;20028;-83
2022/11/26 04:01:40;;;;;;;4.10;2.40;;;10.70;80.40;;;;;;5059106;28;20079;-84
2022/11/26 04:04:06;;;;;;;3.67;2.50;;;10.70;80.40;;;;;;5062016;28;20111;-83
2022/11/26 04:06:32;;;;;;;2.45;2.20;;;10.60;80.30;;;;;;5065838;28;20024;-85
2022/11/26 04:08:58;;;;;;;3.03;2.08;;;10.50;80.50;;;;;;5067950;28;20028;-84
2022/11/26 04:11:23;;;;;;;2.45;1.70;;;10.60;80.80;;;;;;5062530;28;20036;-83
2022/11/26 04:13:49;;;;;;;2.63;1.67;;;10.60;80.80;;;;;;5065751;28;20060;-83
2022/11/26 04:16:14;;;;;;;2.80;1.58;;;10.70;81.10;;;;;;5068773;28;20028;-83
2022/11/26 04:18:40;;;;;;;2.08;1.70;;;10.70;81.00;;;;;;5063838;28;20068;-84
2022/11/26 04:21:06;;;;;;;2.65;1.52;;;10.70;80.60;;;;;;5064971;28;20028;-84
2022/11/26 04:23:33;;;;;;;3.28;1.90;;;10.70;80.70;;;;;;5069375;28;20429;-84
2022/11/26 04:25:59;;;;;;;2.10;1.80;;;10.70;80.70;;;;;;5064683;28;20134;-83
2022/11/26 04:28:25;;;;;;;3.47;1.70;;;10.80;80.70;;;;;;5069258;28;20253;-84
2022/11/26 04:30:51;;;;;;;3.10;1.45;;;10.80;80.60;;;;;;5072561;28;20040;-85
2022/11/26 04:33:16;;;;;;;2.63;1.77;;;10.90;80.50;;;;;;5072776;28;20021;-84
2022/11/26 04:35:42;;;;;;;3.20;1.77;;;10.90;80.40;;;;;;5065847;28;20029;-85
2022/11/26 04:38:08;;;;;;;2.70;1.77;;;11.00;80.10;;;;;;5057094;28;20366;-85
2022/11/26 04:40:34;;;;;;;1.83;1.25;;;11.00;80.70;;;;;;5062725;28;20491;-84
2022/11/26 04:43:00;;;;;;;2.55;1.60;;;11.00;80.30;;;;;;5072658;28;20109;-84
2022/11/26 04:45:26;;;;;;;2.13;1.67;;;11.00;80.30;;;;;;5070623;28;20020;-82
2022/11/26 04:47:52;;;;;;;3.65;1.50;;;11.00;80.00;;;;;;5071504;28;20035;-82
2022/11/26 04:50:18;;;;;;;2.78;1.90;;;11.00;80.00;;;;;;5071881;28;20038;-82
2022/11/26 04:52:47;;;;;;;4.10;2.15;;;11.00;78.90;;;;;;5070619;28;20468;-82
2022/11/26 04:55:13;;;;;;;3.40;1.77;;;10.80;79.40;;;;;;5071777;28;20040;-84
2022/11/26 04:57:39;;;;;;;2.13;1.50;;;10.80;79.90;;;;;;5062774;28;20029;-83
2022/11/26 05:00:06;;;;;;;3.20;2.00;;;10.80;80.10;;;;;;5064158;28;20035;-83
2022/11/26 05:02:32;;;;;;;5.88;2.45;;;10.60;79.70;;;;;;5051101;28;20507;-83
2022/11/26 05:04:57;;;;;;;3.55;2.20;;;10.40;80.30;;;;;;5071900;28;20028;-83
2022/11/26 05:07:23;;;;;;;2.45;1.52;;;10.20;81.30;;;;;;5071559;28;20028;-83
2022/11/26 05:09:49;;;;;;;3.00;1.65;;;10.20;81.70;;;;;;5070357;28;20021;-82
2022/11/26 05:12:14;;;;;;;3.20;2.20;;;10.20;81.60;;;;;;5072829;28;20115;-83
2022/11/26 05:14:40;;;;;;;5.32;2.60;;;10.20;81.40;;;;;;5068808;28;20451;-83
2022/11/26 05:17:06;;;;;;;4.00;2.03;;;10.40;81.70;;;;;;5069738;28;20032;-81
2022/11/26 05:19:31;;;;;;;2.88;1.85;;;10.40;81.60;;;;;;5064565;28;20383;-81
2022/11/26 05:21:57;;;;;;;2.55;2.05;;;10.40;81.30;;;;;;5062682;28;20142;-82
2022/11/26 05:24:22;;;;;;;3.10;2.33;;;10.50;81.00;;;;;;5067519;28;20048;-81
2022/11/26 05:26:48;;;;;;;2.78;2.13;;;10.50;80.70;;;;;;5043957;28;20116;-82
2022/11/26 05:29:14;;;;;;;2.90;2.30;;;10.50;80.70;;;;;;5056552;28;20036;-83
2022/11/26 05:31:39;;;;;;;4.35;2.30;;;10.50;80.60;;;;;;5064327;28;20029;-82
2022/11/26 05:34:05;;;;;;;2.92;2.33;;;10.60;80.70;;;;;;5065330;28;20040;-82
2022/11/26 05:36:31;;;;;;;3.33;2.38;;;10.60;80.30;;;;;;5064956;28;20111;-82
2022/11/26 05:38:56;;;;;;;3.15;1.92;;;10.60;79.90;;;;;;5061176;28;20021;-82
2022/11/26 05:41:22;;;;;;;2.80;1.85;;;10.70;80.30;;;;;;5066745;28;20372;-84
2022/11/26 05:43:48;;;;;;;3.88;2.45;;;10.80;80.00;;;;;;5064490;28;20078;-83
2022/11/26 05:46:16;;;;;;;2.92;1.95;;;10.90;79.80;;;;;;5065913;28;20528;-83
2022/11/26 05:48:42;;;;;;;4.93;2.35;;;10.90;79.60;;;;;;5065561;28;20073;-84
2022/11/26 05:51:08;;;;;;;3.45;2.20;;;11.00;79.50;;;;;;5068215;28;20044;-84
2022/11/26 05:53:33;;;;;;;3.92;2.33;;;10.90;78.90;;;;;;5067896;28;20025;-85
2022/11/26 05:55:59;;;;;;;2.80;1.88;;;11.00;78.40;;;;;;5064177;28;20343;-83
2022/11/26 05:58:25;;;;;;;3.35;2.00;;;11.00;78.50;;;;;;5070764;28;20077;-82
2022/11/26 06:00:51;;;;;;;2.55;2.10;;;11.00;78.10;;;;;;5070995;28;20025;-81
2022/11/26 06:03:17;;;;;;;4.70;2.15;;;11.00;78.40;;;;;;5068359;28;20369;-81
2022/11/26 06:05:43;;;;;;;3.47;2.05;;;10.80;77.20;;;;;;5064810;28;20032;-82
2022/11/26 06:08:08;;;;;;;5.70;2.42;;;10.80;78.30;;;;;;5060942;28;20032;-82
2022/11/26 06:10:34;;;;;;;3.03;2.22;;;10.80;78.20;;;;;;5055715;28;20072;-85
2022/11/26 06:13:00;;;;;;;3.63;2.08;;;10.80;78.20;;;;;;5060638;28;20033;-83
2022/11/26 06:15:25;;;;;;;3.40;2.28;;;10.80;78.60;;;;;;5066053;28;20394;-83
2022/11/26 06:17:51;;;;;;;4.00;2.35;;;10.80;78.00;;;;;;5067374;28;20055;-83
2022/11/26 06:20:17;;;;;;;3.20;2.20;;;10.80;78.60;;;;;;5068258;28;20385;-83
2022/11/26 06:22:43;;;;;;;3.22;2.15;;;10.80;78.50;;;;;;5063937;28;20365;-84
2022/11/26 06:25:12;;;;;;;3.90;2.00;;;10.70;78.30;;;;;;5062163;28;20481;-83
2022/11/26 06:27:39;;;;;;;4.57;2.33;;;10.80;78.80;;;;;;5075085;28;21061;-82
2022/11/26 06:30:08;;;;;;;5.38;2.58;;;10.80;78.60;;;;;;5075012;28;20387;-82
2022/11/26 06:32:33;;;;;;;4.25;2.70;;;10.70;78.80;;;;;;5069335;28;20552;-82
2022/11/26 06:34:59;;;;;;;3.42;2.45;;;10.70;79.00;;;;;;5063723;28;20029;-82
2022/11/26 06:37:25;;;;;;;2.95;2.25;;;10.70;79.20;;;;;;5068036;28;20033;-83
2022/11/26 06:39:51;;;;;;;5.38;2.58;;;10.70;79.10;;;;;;5067172;28;20044;-84
2022/11/26 06:42:17;;;;;;;4.95;2.28;;;10.70;78.70;;;;;;5067333;28;20024;-84
2022/11/26 06:44:43;;;;;;;4.07;2.78;;;10.70;78.80;;;;;;5071899;28;20053;-83
2022/11/26 06:47:10;;;;;;;5.55;2.72;;;10.70;78.80;;;;;;5066292;28;20060;-84
2022/11/26 06:49:36;;;;;;;5.88;2.25;;;10.70;78.60;;;;;;5049614;28;20079;-84
2022/11/26 06:52:02;;;;;;;5.07;2.70;;;10.70;78.90;;;;;;5074097;28;20052;-82
2022/11/26 06:54:27;;;;;;;5.05;2.67;;;10.70;79.20;;;;;;5072650;28;20024;-86
2022/11/26 06:56:53;;;;;;;3.40;2.00;;;10.70;78.70;;;;;;5078513;28;20108;-83
2022/11/26 06:59:18;;;;;;;3.10;2.10;;;10.70;79.00;;;;;;5075602;28;20040;-83
2022/11/26 07:01:44;;;;;;;4.28;2.78;;;10.80;79.20;;;;;;5073792;28;20083;-83
2022/11/26 07:04:11;;;;;;;3.45;2.47;;;10.80;79.10;;;;;;5066115;28;20016;-82
2022/11/26 07:06:36;;;;;;;3.15;2.47;;;10.80;79.00;;;;;;5073574;28;20032;-82
2022/11/26 07:09:06;;;;;;;3.58;2.38;;;10.80;79.20;;;;;;5070462;28;20109;-82
2022/11/26 07:11:33;;;;;;;7.65;3.00;;;10.90;79.40;;;;;;5069719;28;20029;-82
2022/11/26 07:14:00;;;;;;;5.60;3.17;;;10.80;79.40;;;;;;5069910;28;20022;-82
2022/11/26 07:16:26;;;;;;;6.45;2.63;;;10.90;79.40;;;;;;5070157;28;20093;-82
2022/11/26 07:18:54;;;;;;;9.07;2.55;;;10.90;79.30;;;;;;5071523;28;20169;-79
2022/11/26 07:21:20;;;;;;;5.25;2.65;;;10.80;79.30;;;;;;5069981;28;20039;-83
2022/11/26 07:23:46;;;;;;;4.97;2.35;;;10.80;79.50;;;;;;5065359;28;20040;-84
2022/11/26 07:26:13;;;;;;;4.45;2.60;;;10.80;79.00;;;;;;5071656;28;20557;-83
2022/11/26 07:28:39;;;;;;;3.78;2.65;;;10.80;79.20;;;;;;5074090;28;20035;-83
2022/11/26 07:31:16;;;;;;;4.68;2.60;;;10.80;78.20;;;;;;5074357;28;20029;-82
2022/11/26 07:33:42;;;;;;;4.15;2.25;;;10.70;77.90;;;;;;5069243;28;20407;-81
2022/11/26 07:36:18;;;;;;;4.82;2.53;;;10.80;78.10;;;;;;5061427;28;20466;-81
2022/11/26 07:38:44;;;;;;;3.10;2.00;;;10.80;77.80;;;;;;5062693;28;20017;-82
2022/11/26 07:41:12;;;;;;;3.70;2.42;;;10.90;78.00;;;;;;5073085;28;20036;-82
2022/11/26 07:43:40;;;;;;;2.67;2.20;;;11.00;78.30;;;;;;5073172;28;20035;-81
2022/11/26 07:46:09;;;;;;;3.85;2.65;;;11.00;78.00;;;;;;5072201;28;20021;-82
2022/11/26 07:48:37;;;;;;;6.75;2.42;;;10.90;76.90;;;;;;5065661;28;20446;-85
2022/11/26 07:51:03;;;;;;;4.68;2.00;;;10.80;77.00;;;;;;5057932;28;20040;-85
2022/11/26 07:53:30;;;;;;;4.07;2.35;;;10.90;77.40;;;;;;5061284;28;20056;-82
2022/11/26 07:55:55;;;;;;;4.65;2.70;;;10.80;77.40;;;;;;5068971;28;20031;-81
2022/11/26 07:58:21;;;;;;;4.40;2.28;;;10.70;77.60;;;;;;5071606;28;20377;-81
2022/11/26 08:00:47;;;;;;;4.88;2.72;;;10.80;77.60;;;;;;5074160;28;20049;-81
2022/11/26 08:03:12;;;;;;;3.80;2.72;;;10.90;77.50;;;;;;5073909;28;20435;-81
2022/11/26 08:05:42;;;;;;;2.92;2.47;;;11.00;77.40;;;;;;5071341;28;20527;-81
2022/11/26 08:08:08;;;;;;;3.85;2.25;;;11.00;77.60;;;;;;5077881;28;20107;-81
2022/11/26 08:10:34;;;;;;;4.43;2.00;;;11.00;76.80;;;;;;5044686;28;20381;-80
2022/11/26 08:13:00;;;;;;;6.97;1.90;;;11.00;76.60;;;;;;5069944;28;20032;-81
2022/11/26 08:15:26;;;;;;;2.78;1.90;;;11.00;76.90;;;;;;5065240;28;20220;-81
2022/11/26 08:17:55;;;;;;;4.22;2.35;;;11.10;77.20;;;;;;5067638;28;20023;-80
2022/11/26 08:20:21;;;;;;;3.40;2.33;;;11.30;77.20;;;;;;5067009;28;20036;-81
2022/11/26 08:22:47;;;;;;;2.90;2.13;;;11.30;76.10;;;;;;5068131;28;20116;-80
2022/11/26 08:25:12;;;;;;;3.05;2.25;;;11.40;76.50;;;;;;5064903;28;20031;-83
2022/11/26 08:27:38;;;;;;;4.75;3.30;;;11.40;75.90;;;;;;5072234;28;20369;-79
2022/11/26 08:30:05;;;;;;;2.35;2.10;;;11.40;75.10;;;;;;5059136;28;20373;-79
2022/11/26 08:32:31;;;;;;;6.03;2.22;;;11.40;76.20;;;;;;5061013;28;20112;-78
2022/11/26 08:34:57;;;;;;;3.25;2.25;;;11.40;75.60;;;;;;5073645;28;20099;-77
2022/11/26 08:37:22;;;;;;;8.82;2.80;;;11.50;76.30;;;;;;5069472;28;20044;-79
2022/11/26 08:39:48;;;;;;;6.07;2.53;;;11.50;74.80;;;;;;5054817;28;20029;-81
2022/11/26 08:42:14;;;;;;;6.97;2.58;;;11.60;75.80;;;;;;5063632;28;20064;-81
2022/11/26 08:44:40;;;;;;;3.47;2.50;;;11.60;75.90;;;;;;5066784;28;20029;-81
2022/11/26 08:47:05;;;;;;;6.93;2.72;;;11.60;76.00;;;;;;5068113;28;20230;-80
2022/11/26 08:49:31;;;;;;;4.40;2.88;;;11.70;75.90;;;;;;5064354;28;20048;-79
2022/11/26 08:51:56;;;;;;;4.88;2.47;;;11.60;75.50;;;;;;5073329;28;20040;-80
2022/11/26 08:54:23;;;;;;;7.65;3.10;;;11.70;75.50;;;;;;5064136;28;20401;-80
2022/11/26 08:56:49;;;;;;;4.28;2.67;;;11.70;75.60;;;;;;5065021;28;20024;-82
2022/11/26 08:59:16;;;;;;;3.63;2.50;;;11.70;75.10;;;;;;5064470;28;20186;-80
2022/11/26 09:01:42;;;;;;;4.28;2.88;;;11.70;75.70;;;;;;5057622;28;20081;-80
2022/11/26 09:04:07;;;;;;;3.30;2.10;;;11.80;75.90;;;;;;5062154;28;20033;-80
2022/11/26 09:06:37;;;;;;;4.80;2.25;;;11.80;76.00;;;;;;5060147;28;20099;-75
2022/11/26 09:09:13;;;;;;;4.67;2.13;;;11.80;75.90;;;;;;5065565;28;20576;-75
2022/11/26 09:11:43;;;;;;;3.00;2.15;;;11.90;75.90;;;;;;5043647;28;20032;-76
2022/11/26 09:14:10;;;;;;;2.72;1.83;;;11.90;75.70;;;;;;5068691;28;20100;-76
2022/11/26 09:16:36;;;;;;;2.70;1.70;;;11.90;75.80;;;;;;5070420;28;20043;-76
2022/11/26 09:19:02;;;;;;;4.13;2.00;;;12.00;75.60;;;;;;5071767;28;20032;-79
2022/11/26 09:21:29;;;;;;;2.80;1.88;;;12.10;75.70;;;;;;5071277;28;20035;-76
2022/11/26 09:23:54;;;;;;;4.53;1.92;;;12.20;75.60;;;;;;5065714;28;20075;-77
2022/11/26 09:26:20;;;;;;;3.17;1.67;;;12.20;75.50;;;;;;5067902;28;20028;-76
2022/11/26 09:28:48;;;;;;;3.55;1.85;;;12.30;75.70;;;;;;5065964;28;20025;-76
2022/11/26 09:31:13;;;;;;;2.17;1.52;;;12.40;75.70;;;;;;5070774;28;20031;-76
2022/11/26 09:33:39;;;;;;;4.60;1.55;;;12.50;75.60;;;;;;5059861;28;20016;-76
2022/11/26 09:36:07;;;;;;;3.13;1.60;;;12.60;75.70;;;;;;5066882;28;20033;-76
2022/11/26 09:38:34;;;;;;;3.00;1.67;;;12.70;75.70;;;;;;5058053;28;20091;-76
2022/11/26 09:41:18;;;;;;;2.42;1.52;;;12.80;75.60;;;;;;5063329;28;20027;-76
2022/11/26 09:44:02;;;;;;;4.72;1.63;;;13.00;75.60;;;;;;5063042;28;20040;-76
2022/11/26 09:46:34;;;;;;;2.33;1.50;;;13.10;75.10;;;;;;5056115;28;20099;-76
2022/11/26 09:49:01;;;;;;;2.58;1.30;;;13.30;74.80;;;;;;5065145;28;20021;-73
2022/11/26 09:51:28;;;;;;;3.33;1.10;;;13.40;74.20;;;;;;5064088;28;20048;-74
2022/11/26 09:53:55;;;;;;;2.22;1.30;;;13.50;74.40;;;;;;5063817;28;20033;-74
2022/11/26 09:56:25;;;;;;;2.40;1.27;;;13.50;74.30;;;;;;5065327;28;20033;-74
2022/11/26 09:59:01;;;;;;;2.47;1.17;;;13.60;74.20;;;;;;5069156;28;20075;-74
2022/11/26 10:01:28;;;;;;;4.00;1.27;;;13.70;73.10;;;;;;5072078;28;20029;-74
2022/11/26 10:03:54;;;;;;;2.63;0.95;;;13.80;73.80;;;;;;5072870;28;20032;-75
2022/11/26 10:06:38;;;;;;;4.40;1.25;;;13.90;73.80;;;;;;5046988;28;20029;-75
2022/11/26 10:09:22;;;;;;;2.60;1.08;;;14.00;73.60;;;;;;5064905;28;20028;-75
2022/11/26 10:11:53;;;;;;;1.15;1.05;;;14.10;72.90;;;;;;5066823;28;20032;-74
2022/11/26 10:14:25;;;;;;;4.30;1.38;;;14.20;73.20;;;;;;5073885;28;20111;-74
2022/11/26 10:17:12;;;;;;;4.72;1.45;;;14.40;73.30;;;;;;5072644;28;20364;-75
2022/11/26 10:19:45;;;;;;;3.30;1.00;;;14.50;72.30;;;;;;5064514;28;20037;-75
2022/11/26 10:22:25;;;;;;;2.13;1.00;;;14.80;72.90;;;;;;5043137;28;20032;-75
2022/11/26 10:24:51;;;;;;;4.18;1.20;;;15.10;72.50;;;;;;5073862;28;20040;-75
2022/11/26 10:27:19;;;;;;;2.20;1.33;;;15.40;72.60;;;;;;5056336;28;20508;-75
2022/11/26 10:29:53;;;;;;;3.40;1.15;;;15.70;71.50;;;;;;5056430;28;20064;-75
2022/11/26 10:32:29;;;;;;;3.33;1.27;;;15.90;71.30;;;;;;5066653;28;20029;-75
2022/11/26 10:34:56;;;;;;;1.30;1.00;;;16.20;70.70;;;;;;5066302;28;20037;-74
2022/11/26 10:37:24;;;;;;;2.25;1.10;;;16.40;70.90;;;;;;5064049;28;20087;-75
2022/11/26 10:40:16;;;;;;;2.55;1.05;;;16.60;70.40;;;;;;5073159;28;20066;-75
2022/11/26 10:42:50;;;;;;;2.22;1.20;;;16.80;70.30;;;;;;5059248;28;20035;-76
2022/11/26 10:45:25;;;;;;;1.70;1.02;;;16.90;69.60;;;;;;5056450;28;20110;-76
2022/11/26 10:47:51;;;;;;;1.63;1.02;;;17.20;69.40;;;;;;5064544;28;20029;-76
2022/11/26 10:50:22;;;;;;;2.67;1.35;;;17.30;68.90;;;;;;5074914;28;20040;-76
2022/11/26 10:52:50;;;;;;;2.55;1.23;;;17.50;68.70;;;;;;5069247;28;20082;-76
2022/11/26 10:55:15;;;;;;;3.42;1.30;;;17.70;68.40;;;;;;5064130;28;20040;-76
2022/11/26 10:57:46;;;;;;;2.80;0.90;;;18.00;68.10;;;;;;5063778;28;20899;-76
2022/11/26 11:00:37;;;;;;;3.70;1.00;;;18.20;66.70;;;;;;5067033;28;20468;-76
2022/11/26 11:03:14;;;;;;;2.50;1.38;;;18.40;66.40;;;;;;5065316;28;20040;-75
2022/11/26 11:05:42;;;;;;;3.85;1.00;;;18.50;66.10;;;;;;5075385;28;20021;-75
2022/11/26 11:08:28;;;;;;;1.40;0.90;;;18.70;65.70;;;;;;5074677;28;20036;-76
2022/11/26 11:10:56;;;;;;;3.40;1.20;;;18.90;65.20;;;;;;5065755;28;20029;-75
2022/11/26 11:13:37;;;;;;;2.78;0.93;;;19.00;63.30;;;;;;5062592;28;20083;-75
2022/11/26 11:16:03;;;;;;;3.90;1.30;;;19.20;64.30;;;;;;5063166;28;20032;-75
2022/11/26 11:18:29;;;;;;;3.45;1.25;;;19.20;63.30;;;;;;5055536;28;20040;-75
2022/11/26 11:21:02;;;;;;;1.55;1.00;;;19.30;63.10;;;;;;5071176;28;20025;-76
2022/11/26 11:23:30;;;;;;;1.38;0.85;;;19.50;61.10;;;;;;5068214;28;20028;-76
2022/11/26 11:26:27;;;;;;;2.58;1.52;;;19.60;61.60;;;;;;5069465;28;20064;-75
2022/11/26 11:28:54;;;;;;;2.97;1.65;;;19.80;59.20;;;;;;5070718;28;20012;-76
2022/11/26 11:31:22;;;;;;;3.03;1.20;;;20.50;61.50;;;;;;5070035;28;20538;-74
2022/11/26 11:33:48;;;;;;;2.20;1.23;;;21.20;60.10;;;;;;5073368;28;20026;-73
2022/11/26 11:36:19;;;;;;;2.05;1.13;;;21.80;58.00;;;;;;5068090;28;20024;-79
2022/11/26 11:38:51;;;;;;;4.00;1.08;;;22.10;57.60;;;;;;5070198;28;20020;-75
2022/11/26 11:41:34;;;;;;;1.30;0.90;;;22.60;54.50;;;;;;5072872;28;20033;-75
2022/11/26 11:44:08;;;;;;;3.42;1.23;;;22.90;52.90;;;;;;5069217;28;20020;-75
2022/11/26 11:47:23;;;;;;;1.42;0.90;;;23.00;50.20;;;;;;5071164;28;20074;-75
2022/11/26 11:50:12;;;;;;;2.17;0.95;;;22.90;51.20;;;;;;4984080;28;20455;-75
2022/11/26 11:52:53;;;;;;;1.23;1.10;;;22.80;51.20;;;;;;4985118;28;20049;-74
2022/11/26 11:55:21;;;;;;;1.85;1.10;;;23.00;50.20;;;;;;5043681;28;20477;-75
2022/11/26 11:57:54;;;;;;;1.42;0.90;;;24.00;48.90;;;;;;5073971;28;20025;-75
2022/11/26 12:00:46;;;;;;;1.92;1.27;;;24.40;47.80;;;;;;5069803;28;20039;-75
2022/11/26 12:03:34;;;;;;;4.20;0.90;;;24.60;47.20;;;;;;5069918;28;20021;-75
2022/11/26 12:06:18;;;;;;;3.95;1.48;;;24.80;46.40;;;;;;5068253;28;20032;-75
2022/11/26 12:08:44;;;;;;;3.17;1.23;;;25.30;42.10;;;;;;5068220;28;20468;-75
2022/11/26 12:11:27;;;;;;;2.85;0.93;;;25.80;44.00;;;;;;5064776;28;20037;-73
2022/11/26 12:14:29;;;;;;;2.55;1.00;;;26.20;42.80;;;;;;5071106;28;20392;-73
2022/11/26 12:17:09;;;;;;;1.02;0.90;;;26.60;42.10;;;;;;5067315;28;20028;-75
2022/11/26 12:19:46;;;;;;;2.30;1.08;;;26.70;39.30;;;;;;5071764;28;20036;-75
2022/11/26 12:22:23;;;;;;;3.13;0.80;;;26.20;40.60;;;;;;5068289;28;20051;-75
2022/11/26 12:24:57;;;;;;;8.20;0.80;;;25.50;40.10;;;;;;5072580;28;20142;-75
2022/11/26 12:27:54;;;;;;;1.80;1.00;;;25.00;40.80;;;;;;5060384;28;20029;-75
2022/11/26 12:30:23;;;;;;;2.80;1.63;;;24.50;41.50;;;;;;5046387;28;20037;-72
2022/11/26 12:33:06;;;;;;;2.22;1.00;;;24.30;41.70;;;;;;5047031;28;20064;-73
2022/11/26 12:35:57;;;;;;;2.58;1.13;;;24.30;41.60;;;;;;5073908;28;20061;-75
2022/11/26 12:38:27;;;;;;;2.65;1.40;;;24.70;42.40;;;;;;5075221;28;20107;-74
2022/11/26 12:41:09;;;;;;;0.70;0.68;;;25.00;41.60;;;;;;5079580;28;20082;-75
2022/11/26 12:43:59;;;;;;;1.23;0.77;;;25.30;40.80;;;;;;5076023;28;20055;-74
2022/11/26 12:46:48;;;;;;;2.45;0.90;;;25.20;38.00;;;;;;5079022;28;20462;-73
2022/11/26 12:49:29;;;;;;;1.33;0.95;;;25.00;39.80;;;;;;5067448;28;20101;-78
2022/11/26 12:52:04;;;;;;;1.25;0.88;;;25.30;39.30;;;;;;5077648;28;20040;-77
2022/11/26 12:54:51;;;;;;;2.08;1.20;;;25.50;39.40;;;;;;5077667;28;20040;-77
2022/11/26 12:57:30;;;;;;;1.98;0.90;;;25.80;38.20;;;;;;5079948;28;20088;-76
2022/11/26 13:00:14;;;;;;;1.30;1.05;;;25.70;39.00;;;;;;5077913;28;20464;-72
2022/11/26 13:02:42;;;;;;;2.45;1.20;;;25.70;38.90;;;;;;5073136;28;20034;-72